Time,TemperatureF,DewpointF,PressureIn,WindDirection,WindDirectionDegrees,WindSpeedMPH,WindSpeedGustMPH,Humidity,HourlyPrecipIn,Conditions,Clouds,dailyrainin,SolarRadiationWatts/m^2,SoftwareType,DateUTC
2013-02-19 00:00:00,23.3,14.3,30.26,SW,236,0.0,1.0,68,0.00,,,0.00,0,Wunderground v.1.15,2013-02-19 07:00:00,
2013-02-19 00:05:00,23.2,13.5,30.26,SW,236,0.0,1.0,66,0.00,,,0.00,0,Wunderground v.1.15,2013-02-19 07:05:00,
2013-02-19 00:15:00,23.2,11.4,30.25,SSW,197,1.0,1.0,60,0.00,,,0.00,0,Wunderground v.1.15,2013-02-19 07:15:00,
2013-02-19 00:25:00,23.1,12.4,30.26,SE,129,1.0,1.0,63,0.00,,,0.00,0,Wunderground v.1.15,2013-02-19 07:25:00,
2013-02-19 00:30:00,22.9,11.4,30.26,SE,129,0.0,0.0,61,0.00,,,0.00,0,Wunderground v.1.15,2013-02-19 07:30:00,
2013-02-19 00:40:00,22.3,11.6,30.26,SE,129,0.0,0.0,63,0.00,,,0.00,0,Wunderground v.1.15,2013-02-19 07:40:00,
2013-02-19 00:45:00,22.5,13.2,30.26,ESE,107,0.0,0.0,67,0.00,,,0.00,0,Wunderground v.1.15,2013-02-19 07:45:00,
2013-02-19 00:50:00,22.3,12.7,30.26,ESE,107,0.0,1.0,66,0.00,,,0.00,0,Wunderground v.1.15,2013-02-19 07:50:00,
2013-02-19 01:00:00,21.8,12.2,30.26,ENE,70,1.0,1.0,66,0.00,,,0.00,0,Wunderground v.1.15,2013-02-19 08:00:00,
2013-02-19 01:10:00,21.8,12.9,30.26,ENE,70,0.0,1.0,68,0.00,,,0.00,0,Wunderground v.1.15,2013-02-19 08:10:00,
2013-02-19 01:20:00,21.5,12.9,30.26,NE,56,2.0,2.0,69,0.00,,,0.00,0,Wunderground v.1.15,2013-02-19 08:20:00,
2013-02-19 01:30:00,21.6,12.7,30.26,SW,223,1.0,2.0,68,0.00,,,0.00,0,Wunderground v.1.15,2013-02-19 08:30:00,
2013-02-19 01:35:00,21.3,12.0,30.26,SW,223,1.0,2.0,67,0.00,,,0.00,0,Wunderground v.1.15,2013-02-19 08:35:00,
2013-02-19 01:45:00,21.2,12.3,30.26,South,172,1.0,1.0,68,0.00,,,0.00,0,Wunderground v.1.15,2013-02-19 08:45:00,
2013-02-19 01:50:00,21.0,12.1,30.26,South,172,0.0,1.0,68,0.00,,,0.00,0,Wunderground v.1.15,2013-02-19 08:50:00,
2013-02-19 02:00:00,20.6,11.0,30.26,SSW,193,0.0,4.0,66,0.00,,,0.00,0,Wunderground v.1.15,2013-02-19 09:00:00,
2013-02-19 02:10:00,20.2,10.3,30.26,SSE,148,1.0,2.0,65,0.00,,,0.00,0,Wunderground v.1.15,2013-02-19 09:10:00,
2013-02-19 02:20:00,19.8,10.6,30.26,SSE,148,0.0,1.0,67,0.00,,,0.00,0,Wunderground v.1.15,2013-02-19 09:20:00,
2013-02-19 02:25:00,19.8,10.9,30.26,SSE,148,0.0,1.0,68,0.00,,,0.00,0,Wunderground v.1.15,2013-02-19 09:25:00,
2013-02-19 02:30:00,19.5,10.0,30.26,SSE,148,0.0,1.0,66,0.00,,,0.00,0,Wunderground v.1.15,2013-02-19 09:30:00,
2013-02-19 02:40:00,19.8,11.9,30.26,SE,144,0.0,1.0,71,0.00,,,0.00,0,Wunderground v.1.15,2013-02-19 09:40:00,
2013-02-19 02:45:00,19.4,10.9,30.26,SE,144,0.0,1.0,69,0.00,,,0.00,0,Wunderground v.1.15,2013-02-19 09:45:00,
2013-02-19 02:55:00,19.2,10.7,30.26,South,189,0.0,2.0,69,0.00,,,0.00,0,Wunderground v.1.15,2013-02-19 09:55:00,
2013-02-19 03:05:00,18.5,9.0,30.26,South,189,0.0,1.0,66,0.00,,,0.00,0,Wunderground v.1.15,2013-02-19 10:05:00,
2013-02-19 03:15:00,18.1,9.0,30.26,South,189,0.0,2.0,67,0.00,,,0.00,0,Wunderground v.1.15,2013-02-19 10:15:00,
2013-02-19 03:25:00,18.3,10.1,30.26,South,187,0.0,0.0,70,0.00,,,0.00,0,Wunderground v.1.15,2013-02-19 10:25:00,
2013-02-19 03:30:00,18.2,9.7,30.26,South,187,0.0,0.0,69,0.00,,,0.00,0,Wunderground v.1.15,2013-02-19 10:30:00,
2013-02-19 03:40:00,18.4,10.6,30.26,SSW,211,0.0,0.0,71,0.00,,,0.00,0,Wunderground v.1.15,2013-02-19 10:40:00,
2013-02-19 03:50:00,17.9,9.4,30.26,SW,227,1.0,2.0,69,0.00,,,0.00,0,Wunderground v.1.15,2013-02-19 10:50:00,
2013-02-19 04:00:00,17.5,9.1,30.26,SW,217,1.0,3.0,69,0.00,,,0.00,0,Wunderground v.1.15,2013-02-19 11:00:00,
2013-02-19 04:05:00,17.1,8.3,30.26,South,181,2.0,3.0,68,0.00,,,0.00,0,Wunderground v.1.15,2013-02-19 11:05:00,
2013-02-19 04:15:00,17.0,8.3,30.26,SW,231,2.0,3.0,68,0.00,,,0.00,0,Wunderground v.1.15,2013-02-19 11:15:00,
2013-02-19 04:25:00,17.2,7.8,30.26,South,185,2.0,2.0,66,0.00,,,0.00,0,Wunderground v.1.15,2013-02-19 11:25:00,
2013-02-19 04:30:00,17.1,7.7,30.26,SE,134,1.0,3.0,66,0.00,,,0.00,0,Wunderground v.1.15,2013-02-19 11:30:00,
2013-02-19 04:40:00,17.0,7.3,30.26,SSW,207,1.0,1.0,65,0.00,,,0.00,0,Wunderground v.1.15,2013-02-19 11:40:00,
2013-02-19 04:50:00,16.7,7.6,30.26,SW,221,2.0,4.0,67,0.00,,,0.00,0,Wunderground v.1.15,2013-02-19 11:50:00,
2013-02-19 05:00:00,16.1,7.4,30.26,WNW,289,2.0,2.0,68,0.00,,,0.00,0,Wunderground v.1.15,2013-02-19 12:00:00,
2013-02-19 05:05:00,16.2,8.1,30.26,SW,231,1.0,2.0,70,0.00,,,0.00,0,Wunderground v.1.15,2013-02-19 12:05:00,
2013-02-19 05:10:00,16.4,8.6,30.26,SSW,206,1.0,1.0,71,0.00,,,0.00,0,Wunderground v.1.15,2013-02-19 12:10:00,
2013-02-19 05:20:00,16.2,8.1,30.26,SSW,206,0.0,1.0,70,0.00,,,0.00,0,Wunderground v.1.15,2013-02-19 12:20:00,
2013-02-19 05:25:00,15.9,7.5,30.26,SSW,206,0.0,1.0,69,0.00,,,0.00,0,Wunderground v.1.15,2013-02-19 12:25:00,
2013-02-19 05:35:00,15.9,7.5,30.27,SSW,206,0.0,1.0,69,0.00,,,0.00,0,Wunderground v.1.15,2013-02-19 12:35:00,
2013-02-19 05:40:00,15.8,7.4,30.27,SSW,206,0.0,1.0,69,0.00,,,0.00,0,Wunderground v.1.15,2013-02-19 12:40:00,
2013-02-19 05:45:00,15.5,6.8,30.27,SSW,206,0.0,1.0,68,0.00,,,0.00,0,Wunderground v.1.15,2013-02-19 12:45:00,
2013-02-19 05:55:00,15.2,6.5,30.27,SSW,206,0.0,1.0,68,0.00,,,0.00,0,Wunderground v.1.15,2013-02-19 12:55:00,
2013-02-19 06:05:00,15.4,6.7,30.27,SSW,206,1.0,2.0,68,0.00,,,0.00,0,Wunderground v.1.15,2013-02-19 13:05:00,
2013-02-19 06:15:00,15.4,7.0,30.27,SSW,205,1.0,2.0,69,0.00,,,0.00,0,Wunderground v.1.15,2013-02-19 13:15:00,
2013-02-19 06:25:00,15.0,7.0,30.27,SSW,201,1.0,2.0,70,0.00,,,0.00,0,Wunderground v.1.15,2013-02-19 13:25:00,
2013-02-19 06:35:00,15.1,7.4,30.27,South,172,0.0,1.0,71,0.00,,,0.00,0,Wunderground v.1.15,2013-02-19 13:35:00,
2013-02-19 06:40:00,15.2,7.8,30.27,SE,140,0.0,4.0,72,0.00,,,0.00,0,Wunderground v.1.15,2013-02-19 13:40:00,
2013-02-19 06:45:00,15.2,7.8,30.27,SSW,193,1.0,4.0,72,0.00,,,0.00,0,Wunderground v.1.15,2013-02-19 13:45:00,
2013-02-19 06:55:00,15.1,7.4,30.27,South,189,1.0,1.0,71,0.00,,,0.00,0,Wunderground v.1.15,2013-02-19 13:55:00,
2013-02-19 07:05:00,15.0,7.6,30.27,SSW,192,2.0,3.0,72,0.00,,,0.00,7,Wunderground v.1.15,2013-02-19 14:05:00,
2013-02-19 07:10:00,14.6,6.9,30.27,South,191,1.0,1.0,71,0.00,,,0.00,11,Wunderground v.1.15,2013-02-19 14:10:00,
2013-02-19 07:15:00,14.5,6.8,30.27,South,191,0.0,3.0,71,0.00,,,0.00,12,Wunderground v.1.15,2013-02-19 14:15:00,
2013-02-19 07:25:00,14.4,7.0,30.27,SW,225,0.0,3.0,72,0.00,,,0.00,16,Wunderground v.1.15,2013-02-19 14:25:00,
2013-02-19 07:35:00,14.4,6.7,30.27,SW,224,0.0,3.0,71,0.00,,,0.00,19,Wunderground v.1.15,2013-02-19 14:35:00,
2013-02-19 07:45:00,14.5,7.1,30.27,SW,236,0.0,3.0,72,0.00,,,0.00,23,Wunderground v.1.15,2013-02-19 14:45:00,
2013-02-19 07:55:00,14.8,7.7,30.27,SW,236,0.0,3.0,73,0.00,,,0.00,28,Wunderground v.1.15,2013-02-19 14:55:00,
2013-02-19 08:05:00,14.3,6.6,30.27,WSW,237,0.0,3.0,71,0.00,,,0.00,30,Wunderground v.1.15,2013-02-19 15:05:00,
2013-02-19 08:10:00,14.3,6.3,30.27,SW,236,0.0,3.0,70,0.00,,,0.00,32,Wunderground v.1.15,2013-02-19 15:10:00,
2013-02-19 08:20:00,14.9,7.5,30.26,SSE,147,0.0,3.0,72,0.00,,,0.00,32,Wunderground v.1.15,2013-02-19 15:20:00,
2013-02-19 08:25:00,14.9,7.2,30.26,SSE,153,0.0,3.0,71,0.00,,,0.00,30,Wunderground v.1.15,2013-02-19 15:25:00,
2013-02-19 08:35:00,15.3,6.6,30.26,NNE,19,1.0,3.0,68,0.00,,,0.00,33,Wunderground v.1.15,2013-02-19 15:35:00,
2013-02-19 08:40:00,15.9,6.9,30.26,South,178,1.0,1.0,67,0.00,,,0.00,272,Wunderground v.1.15,2013-02-19 15:40:00,
2013-02-19 08:50:00,17.7,7.2,30.26,SE,141,2.0,3.0,63,0.00,,,0.00,302,Wunderground v.1.15,2013-02-19 15:50:00,
2013-02-19 08:55:00,18.1,6.9,30.26,South,178,2.0,6.0,61,0.00,,,0.00,315,Wunderground v.1.15,2013-02-19 15:55:00,
2013-02-19 09:05:00,19.5,7.5,30.25,SSE,158,3.0,3.0,59,0.00,,,0.00,345,Wunderground v.1.15,2013-02-19 16:05:00,
2013-02-19 09:15:00,19.8,6.6,30.24,ESE,117,3.0,4.0,56,0.00,,,0.00,374,Wunderground v.1.15,2013-02-19 16:15:00,
2013-02-19 09:25:00,22.0,9.1,30.24,SSW,212,3.0,4.0,57,0.00,,,0.00,397,Wunderground v.1.15,2013-02-19 16:25:00,
2013-02-19 09:30:00,22.1,8.4,30.24,South,174,3.0,3.0,55,0.00,,,0.00,411,Wunderground v.1.15,2013-02-19 16:30:00,
2013-02-19 09:40:00,23.6,10.6,30.23,SSE,162,3.0,3.0,57,0.00,,,0.00,434,Wunderground v.1.15,2013-02-19 16:40:00,
2013-02-19 09:45:00,23.5,8.0,30.22,South,182,3.0,4.0,51,0.00,,,0.00,446,Wunderground v.1.15,2013-02-19 16:45:00,
2013-02-19 09:50:00,24.5,8.9,30.22,ESE,114,3.0,3.0,51,0.00,,,0.00,459,Wunderground v.1.15,2013-02-19 16:50:00,
2013-02-19 09:55:00,24.7,7.3,30.21,SW,227,3.0,3.0,47,0.00,,,0.00,471,Wunderground v.1.15,2013-02-19 16:55:00,
2013-02-19 10:05:00,25.2,8.2,30.21,SSE,160,4.0,4.0,48,0.00,,,0.00,496,Wunderground v.1.15,2013-02-19 17:05:00,
2013-02-19 10:15:00,26.9,9.3,30.20,SSE,160,3.0,5.0,47,0.00,,,0.00,519,Wunderground v.1.15,2013-02-19 17:15:00,
2013-02-19 10:20:00,27.2,11.4,30.20,SSE,164,3.0,3.0,51,0.00,,,0.00,527,Wunderground v.1.15,2013-02-19 17:20:00,
2013-02-19 10:30:00,28.5,14.8,30.19,SSE,147,3.0,7.0,56,0.00,,,0.00,552,Wunderground v.1.15,2013-02-19 17:30:00,
2013-02-19 10:40:00,28.0,6.8,30.18,SE,137,4.0,4.0,40,0.00,,,0.00,522,Wunderground v.1.15,2013-02-19 17:40:00,
2013-02-19 10:45:00,29.9,8.5,30.18,SSE,166,4.0,7.0,40,0.00,,,0.00,524,Wunderground v.1.15,2013-02-19 17:45:00,
2013-02-19 10:50:00,30.2,9.3,30.17,SSE,159,3.0,7.0,41,0.00,,,0.00,559,Wunderground v.1.15,2013-02-19 17:50:00,
2013-02-19 11:00:00,30.0,11.2,30.16,SW,219,4.0,7.0,45,0.00,,,0.00,577,Wunderground v.1.15,2013-02-19 18:00:00,
2013-02-19 11:05:00,29.7,8.8,30.16,South,176,4.0,7.0,41,0.00,,,0.00,594,Wunderground v.1.15,2013-02-19 18:05:00,
2013-02-19 11:10:00,30.3,8.3,30.15,SSE,164,4.0,4.0,39,0.00,,,0.00,613,Wunderground v.1.15,2013-02-19 18:10:00,
2013-02-19 11:20:00,30.5,7.3,30.15,South,170,3.0,7.0,37,0.00,,,0.00,626,Wunderground v.1.15,2013-02-19 18:20:00,
2013-02-19 11:25:00,30.8,7.6,30.14,South,169,3.0,7.0,37,0.00,,,0.00,631,Wunderground v.1.15,2013-02-19 18:25:00,
2013-02-19 11:30:00,31.7,7.7,30.14,SSE,165,3.0,7.0,36,0.00,,,0.00,636,Wunderground v.1.15,2013-02-19 18:30:00,
2013-02-19 11:35:00,31.6,5.7,30.13,SSE,147,4.0,7.0,33,0.00,,,0.00,643,Wunderground v.1.15,2013-02-19 18:35:00,
2013-02-19 11:50:00,34.7,11.6,30.11,SSW,197,3.0,7.0,38,0.00,,,0.00,652,Wunderground v.1.15,2013-02-19 18:50:00,
2013-02-19 11:55:00,33.9,7.8,30.10,SE,131,3.0,7.0,33,0.00,,,0.00,657,Wunderground v.1.15,2013-02-19 18:55:00,
2013-02-19 12:05:00,34.5,7.6,30.09,SE,125,3.0,3.0,32,0.00,,,0.00,663,Wunderground v.1.15,2013-02-19 19:05:00,
2013-02-19 12:15:00,35.3,6.2,30.08,ESE,112,2.0,3.0,29,0.00,,,0.00,670,Wunderground v.1.15,2013-02-19 19:15:00,
2013-02-19 12:25:00,36.4,12.6,30.06,NE,55,3.0,3.0,37,0.00,,,0.00,679,Wunderground v.1.15,2013-02-19 19:25:00,
2013-02-19 12:35:00,37.3,11.5,30.05,East,81,2.0,3.0,34,0.00,,,0.00,664,Wunderground v.1.15,2013-02-19 19:35:00,
2013-02-19 12:40:00,37.7,8.2,30.05,SE,137,1.0,1.0,29,0.00,,,0.00,664,Wunderground v.1.15,2013-02-19 19:40:00,
2013-02-19 12:50:00,37.5,8.1,30.03,ESE,109,2.0,4.0,29,0.00,,,0.00,687,Wunderground v.1.15,2013-02-19 19:50:00,
2013-02-19 12:55:00,38.4,11.8,30.02,ENE,70,4.0,4.0,33,0.00,,,0.00,612,Wunderground v.1.15,2013-02-19 19:55:00,
2013-02-19 13:05:00,38.7,12.0,30.01,NE,56,3.0,5.0,33,0.00,,,0.00,601,Wunderground v.1.15,2013-02-19 20:05:00,
2013-02-19 13:10:00,38.7,10.6,30.00,ENE,58,2.0,5.0,31,0.00,,,0.00,671,Wunderground v.1.15,2013-02-19 20:10:00,
2013-02-19 13:15:00,39.0,10.1,30.00,ENE,72,2.0,5.0,30,0.00,,,0.00,717,Wunderground v.1.15,2013-02-19 20:15:00,
2013-02-19 13:25:00,39.7,12.9,29.99,ENE,71,3.0,3.0,33,0.00,,,0.00,403,Wunderground v.1.15,2013-02-19 20:25:00,
2013-02-19 13:30:00,40.3,12.7,29.98,ENE,68,3.0,5.0,32,0.00,,,0.00,499,Wunderground v.1.15,2013-02-19 20:30:00,
2013-02-19 13:40:00,40.2,11.2,29.97,NE,51,5.0,6.0,30,0.00,,,0.00,443,Wunderground v.1.15,2013-02-19 20:40:00,
2013-02-19 13:45:00,41.3,12.1,29.97,ENE,77,4.0,6.0,30,0.00,,,0.00,592,Wunderground v.1.15,2013-02-19 20:45:00,
2013-02-19 13:55:00,41.2,11.3,29.96,ENE,67,4.0,5.0,29,0.00,,,0.00,399,Wunderground v.1.15,2013-02-19 20:55:00,
2013-02-19 14:00:00,42.2,11.4,29.96,NE,53,4.0,5.0,28,0.00,,,0.00,452,Wunderground v.1.15,2013-02-19 21:00:00,
2013-02-19 14:05:00,42.2,13.7,29.95,ENE,64,3.0,5.0,31,0.00,,,0.00,366,Wunderground v.1.15,2013-02-19 21:05:00,
2013-02-19 14:15:00,42.2,14.4,29.94,NE,54,4.0,5.0,32,0.00,,,0.00,415,Wunderground v.1.15,2013-02-19 21:15:00,
2013-02-19 14:25:00,43.2,11.4,29.94,NE,43,2.0,5.0,27,0.00,,,0.00,619,Wunderground v.1.15,2013-02-19 21:25:00,
2013-02-19 14:30:00,43.5,12.5,29.94,NE,47,2.0,2.0,28,0.00,,,0.00,612,Wunderground v.1.15,2013-02-19 21:30:00,
2013-02-19 14:40:00,43.8,13.6,29.93,NE,48,2.0,6.0,29,0.00,,,0.00,631,Wunderground v.1.15,2013-02-19 21:40:00,
2013-02-19 14:50:00,44.2,11.4,29.93,NE,52,4.0,4.0,26,0.00,,,0.00,554,Wunderground v.1.15,2013-02-19 21:50:00,
2013-02-19 15:00:00,44.7,11.9,29.93,NE,52,2.0,2.0,26,0.00,,,0.00,466,Wunderground v.1.15,2013-02-19 22:00:00,
2013-02-19 15:05:00,45.5,15.0,29.93,NE,41,2.0,2.0,29,0.00,,,0.00,499,Wunderground v.1.15,2013-02-19 22:05:00,
2013-02-19 15:15:00,45.6,14.3,29.92,NNE,32,3.0,4.0,28,0.00,,,0.00,501,Wunderground v.1.15,2013-02-19 22:15:00,
2013-02-19 15:20:00,45.3,13.2,29.92,NE,52,3.0,4.0,27,0.00,,,0.00,464,Wunderground v.1.15,2013-02-19 22:20:00,
2013-02-19 15:30:00,45.7,16.7,29.91,NE,48,3.0,3.0,31,0.00,,,0.00,445,Wunderground v.1.15,2013-02-19 22:30:00,
2013-02-19 15:35:00,45.6,14.3,29.91,NE,41,3.0,3.0,28,0.00,,,0.00,285,Wunderground v.1.15,2013-02-19 22:35:00,
2013-02-19 15:45:00,45.2,12.3,29.90,NE,46,3.0,6.0,26,0.00,,,0.00,178,Wunderground v.1.15,2013-02-19 22:45:00,
2013-02-19 15:50:00,44.9,12.9,29.90,NE,53,4.0,5.0,27,0.00,,,0.00,153,Wunderground v.1.15,2013-02-19 22:50:00,
2013-02-19 16:00:00,44.7,12.7,29.90,NE,37,4.0,4.0,27,0.00,,,0.00,141,Wunderground v.1.15,2013-02-19 23:00:00,
2013-02-19 16:05:00,44.6,11.8,29.90,ENE,66,4.0,4.0,26,0.00,,,0.00,130,Wunderground v.1.15,2013-02-19 23:05:00,
2013-02-19 16:10:00,44.6,12.6,29.89,North,4,4.0,4.0,27,0.00,,,0.00,114,Wunderground v.1.15,2013-02-19 23:10:00,
2013-02-19 16:20:00,44.2,12.3,29.89,NE,43,4.0,4.0,27,0.00,,,0.00,93,Wunderground v.1.15,2013-02-19 23:20:00,
2013-02-19 16:25:00,44.1,12.2,29.89,NNE,25,4.0,4.0,27,0.00,,,0.00,83,Wunderground v.1.15,2013-02-19 23:25:00,
2013-02-19 16:35:00,43.7,11.8,29.88,NNE,16,4.0,4.0,27,0.00,,,0.00,72,Wunderground v.1.15,2013-02-19 23:35:00,
2013-02-19 16:40:00,43.5,11.7,29.88,NNE,25,4.0,4.0,27,0.00,,,0.00,74,Wunderground v.1.15,2013-02-19 23:40:00,
2013-02-19 16:50:00,43.3,12.3,29.88,NNE,19,4.0,4.0,28,0.00,,,0.00,74,Wunderground v.1.15,2013-02-19 23:50:00,
2013-02-19 17:00:00,43.0,12.1,29.88,NE,43,4.0,4.0,28,0.00,,,0.00,62,Wunderground v.1.15,2013-02-20 00:00:00,
2013-02-19 17:10:00,42.7,12.6,29.88,North,4,5.0,5.0,29,0.00,,,0.00,49,Wunderground v.1.15,2013-02-20 00:10:00,
2013-02-19 17:15:00,42.5,12.4,29.88,NNE,25,5.0,10.0,29,0.00,,,0.00,46,Wunderground v.1.15,2013-02-20 00:15:00,
2013-02-19 17:20:00,42.3,12.3,29.88,NE,35,6.0,6.0,29,0.00,,,0.00,37,Wunderground v.1.15,2013-02-20 00:20:00,
2013-02-19 17:30:00,42.0,12.0,29.88,North,354,6.0,7.0,29,0.00,,,0.00,25,Wunderground v.1.15,2013-02-20 00:30:00,
2013-02-19 17:35:00,41.8,11.8,29.88,NNE,25,7.0,8.0,29,0.00,,,0.00,16,Wunderground v.1.15,2013-02-20 00:35:00,
2013-02-19 17:45:00,41.4,12.2,29.88,NNE,12,7.0,9.0,30,0.00,,,0.00,7,Wunderground v.1.15,2013-02-20 00:45:00,
2013-02-19 17:55:00,41.1,12.0,29.88,NNW,344,6.0,7.0,30,0.00,,,0.00,0,Wunderground v.1.15,2013-02-20 00:55:00,
2013-02-19 18:00:00,41.1,12.7,29.88,North,11,6.0,9.0,31,0.00,,,0.00,0,Wunderground v.1.15,2013-02-20 01:00:00,
2013-02-19 18:05:00,40.9,12.5,29.88,NNE,19,7.0,9.0,31,0.00,,,0.00,0,Wunderground v.1.15,2013-02-20 01:05:00,
2013-02-19 18:15:00,40.7,13.1,29.88,North,4,5.0,7.0,32,0.00,,,0.00,0,Wunderground v.1.15,2013-02-20 01:15:00,
2013-02-19 18:25:00,40.4,12.1,29.88,NNE,17,5.0,9.0,31,0.00,,,0.00,0,Wunderground v.1.15,2013-02-20 01:25:00,
2013-02-19 18:35:00,40.1,12.6,29.88,North,354,5.0,6.0,32,0.00,,,0.00,0,Wunderground v.1.15,2013-02-20 01:35:00,
2013-02-19 18:45:00,39.9,13.1,29.88,North,354,6.0,8.0,33,0.00,,,0.00,0,Wunderground v.1.15,2013-02-20 01:45:00,
2013-02-19 18:55:00,39.6,12.8,29.88,NNW,348,4.0,5.0,33,0.00,,,0.00,0,Wunderground v.1.15,2013-02-20 01:55:00,
2013-02-19 19:05:00,39.4,13.3,29.88,NNE,27,4.0,13.0,34,0.00,,,0.00,0,Wunderground v.1.15,2013-02-20 02:05:00,
2013-02-19 19:15:00,39.1,15.6,29.88,East,92,2.0,13.0,38,0.00,,,0.00,0,Wunderground v.1.15,2013-02-20 02:15:00,
2013-02-19 19:20:00,38.7,18.6,29.88,ENE,63,2.0,13.0,44,0.00,,,0.00,0,Wunderground v.1.15,2013-02-20 02:20:00,
2013-02-19 19:30:00,37.9,17.9,29.87,East,97,1.0,1.0,44,0.00,,,0.00,0,Wunderground v.1.15,2013-02-20 02:30:00,
2013-02-19 19:35:00,37.5,16.5,29.87,East,97,0.0,13.0,42,0.00,,,0.00,0,Wunderground v.1.15,2013-02-20 02:35:00,
2013-02-19 19:45:00,36.5,18.2,29.87,ESE,120,0.0,13.0,47,0.00,,,0.00,0,Wunderground v.1.15,2013-02-20 02:45:00,
2013-02-19 19:50:00,35.9,18.1,29.87,ESE,120,0.0,13.0,48,0.00,,,0.00,0,Wunderground v.1.15,2013-02-20 02:50:00,
2013-02-19 19:55:00,35.4,18.1,29.87,South,183,0.0,13.0,49,0.00,,,0.00,0,Wunderground v.1.15,2013-02-20 02:55:00,
2013-02-19 20:00:00,35.1,17.8,29.87,South,183,0.0,13.0,49,0.00,,,0.00,0,Wunderground v.1.15,2013-02-20 03:00:00,
2013-02-19 20:10:00,34.4,17.7,29.86,South,183,0.0,13.0,50,0.00,,,0.00,0,Wunderground v.1.15,2013-02-20 03:10:00,
2013-02-19 20:15:00,34.1,17.8,29.86,South,183,0.0,13.0,51,0.00,,,0.00,0,Wunderground v.1.15,2013-02-20 03:15:00,
2013-02-19 20:25:00,33.4,17.2,29.86,South,183,0.0,13.0,51,0.00,,,0.00,0,Wunderground v.1.15,2013-02-20 03:25:00,
2013-02-19 20:30:00,33.1,17.8,29.86,South,183,0.0,13.0,53,0.00,,,0.00,0,Wunderground v.1.15,2013-02-20 03:30:00,
2013-02-19 20:45:00,32.6,18.2,29.86,South,183,0.0,13.0,55,0.00,,,0.00,0,Wunderground v.1.15,2013-02-20 03:45:00,
2013-02-19 20:55:00,31.9,18.0,29.86,South,183,0.0,13.0,56,0.00,,,0.00,0,Wunderground v.1.15,2013-02-20 03:55:00,
2013-02-19 21:05:00,31.2,17.3,29.86,South,183,0.0,13.0,56,0.00,,,0.00,0,Wunderground v.1.15,2013-02-20 04:05:00,
2013-02-19 21:15:00,30.8,16.5,29.86,South,183,0.0,0.0,55,0.00,,,0.00,0,Wunderground v.1.15,2013-02-20 04:15:00,
2013-02-19 21:25:00,30.7,18.1,29.86,South,183,0.0,0.0,59,0.00,,,0.00,0,Wunderground v.1.15,2013-02-20 04:25:00,
2013-02-19 21:30:00,30.3,17.3,29.86,South,183,0.0,0.0,58,0.00,,,0.00,0,Wunderground v.1.15,2013-02-20 04:30:00,
2013-02-19 21:40:00,29.9,17.7,29.86,South,183,0.0,0.0,60,0.00,,,0.00,0,Wunderground v.1.15,2013-02-20 04:40:00,
2013-02-19 21:50:00,29.7,17.1,29.86,South,183,0.0,0.0,59,0.00,,,0.00,0,Wunderground v.1.15,2013-02-20 04:50:00,
2013-02-19 22:00:00,29.5,17.7,29.87,South,183,0.0,0.0,61,0.00,,,0.00,0,Wunderground v.1.15,2013-02-20 05:00:00,
2013-02-19 22:05:00,29.2,17.0,29.87,South,183,0.0,0.0,60,0.00,,,0.00,0,Wunderground v.1.15,2013-02-20 05:05:00,
2013-02-19 22:10:00,29.2,17.4,29.86,South,183,0.0,0.0,61,0.00,,,0.00,0,Wunderground v.1.15,2013-02-20 05:10:00,
2013-02-19 22:15:00,29.3,17.1,29.86,South,183,0.0,0.0,60,0.00,,,0.00,0,Wunderground v.1.15,2013-02-20 05:15:00,
2013-02-19 22:25:00,29.2,17.4,29.86,South,183,0.0,0.0,61,0.00,,,0.00,0,Wunderground v.1.15,2013-02-20 05:25:00,
2013-02-19 22:30:00,29.0,17.2,29.86,South,183,0.0,0.0,61,0.00,,,0.00,0,Wunderground v.1.15,2013-02-20 05:30:00,
2013-02-19 22:40:00,28.3,16.6,29.86,South,183,0.0,0.0,61,0.00,,,0.00,0,Wunderground v.1.15,2013-02-20 05:40:00,
2013-02-19 22:50:00,28.1,16.7,29.86,South,183,0.0,0.0,62,0.00,,,0.00,0,Wunderground v.1.15,2013-02-20 05:50:00,
2013-02-19 23:00:00,27.7,16.4,29.86,South,183,0.0,0.0,62,0.00,,,0.00,0,Wunderground v.1.15,2013-02-20 06:00:00,
2013-02-19 23:10:00,27.5,16.5,29.85,South,183,0.0,0.0,63,0.00,,,0.00,0,Wunderground v.1.15,2013-02-20 06:10:00,
2013-02-19 23:15:00,27.3,16.7,29.86,South,183,0.0,0.0,64,0.00,,,0.00,0,Wunderground v.1.15,2013-02-20 06:15:00,
2013-02-19 23:25:00,27.3,16.7,29.85,South,183,0.0,1.0,64,0.00,,,0.00,0,Wunderground v.1.15,2013-02-20 06:25:00,
2013-02-19 23:30:00,27.2,16.3,29.86,South,183,0.0,0.0,63,0.00,,,0.00,0,Wunderground v.1.15,2013-02-20 06:30:00,
2013-02-19 23:40:00,26.9,16.0,29.85,South,183,0.0,0.0,63,0.00,,,0.00,0,Wunderground v.1.15,2013-02-20 06:40:00,
2013-02-19 23:45:00,26.8,16.6,29.85,South,183,0.0,0.0,65,0.00,,,0.00,0,Wunderground v.1.15,2013-02-20 06:45:00,
2013-02-19 23:55:00,26.3,15.8,29.85,South,183,0.0,0.0,64,0.00,,,0.00,0,Wunderground v.1.15,2013-02-20 06:55:00,